Time;durP1;ratioP1;P1;durP2;ratioP2;P2;SDS_P1;SDS_P2;PMS_P1;PMS_P2;Temp;Humidity;BMP_temperature;BMP_pressure;BME280_temperature;BME280_humidity;BME280_pressure;Samples;Min_cycle;Max_cycle;Signal;HPM_P1;HPM_P2
2022/06/18 00:01:50;;;;;;;7.93;4.50;;;;;;;21.82;59.53;69191.56;5008446;28;20037;-87
2022/06/18 00:04:19;;;;;;;6.13;4.43;;;;;;;21.86;59.27;69201.56;5004259;28;20124;-87
2022/06/18 00:06:59;;;;;;;;;;;;;;;21.89;59.04;69203.84;5023915;28;20033;-87
2022/06/18 00:09:26;;;;;;;5.55;3.50;;;;;;;;;;4991088;28;19921;-86
2022/06/18 00:14:38;;;;;;;7.95;3.13;;;;;;;;;;5026775;28;20064;-86
2022/06/18 00:17:13;;;;;;;5.97;3.38;;;;;;;21.78;59.85;69197.25;5026364;28;20520;-87
2022/06/18 00:19:38;;;;;;;8.07;3.17;;;;;;;;;;5027548;28;20559;-86
2022/06/18 00:22:04;;;;;;;7.00;3.50;;;;;;;21.76;60.17;69190.13;5006266;28;20045;-87
2022/06/18 00:24:29;;;;;;;5.95;3.85;;;;;;;21.71;60.72;69189.25;5009348;28;20292;-87
2022/06/18 00:26:54;;;;;;;3.92;3.25;;;;;;;;;;5008884;28;20562;-86
2022/06/18 00:29:20;;;;;;;5.10;3.20;;;;;;;21.65;60.73;69182.97;5027742;28;20045;-87
2022/06/18 00:31:45;;;;;;;6.18;3.03;;;;;;;;;;5009901;28;20049;-87
2022/06/18 00:34:12;;;;;;;5.30;3.20;;;;;;;21.60;61.16;69177.22;5025930;28;20037;-87
2022/06/18 00:36:38;;;;;;;4.13;2.85;;;;;;;;;;5009401;28;20037;-86
2022/06/18 00:39:05;;;;;;;3.42;2.45;;;;;;;21.63;61.27;69180.66;5007786;28;20042;-87
2022/06/18 00:41:33;;;;;;;3.90;2.70;;;;;;;21.69;61.04;69176.69;5027019;28;20475;-87
2022/06/18 00:44:07;;;;;;;6.83;2.87;;;;;;;;;;5025273;28;20041;-87
2022/06/18 00:46:42;;;;;;;4.30;2.85;;;;;;;21.55;61.81;69171.50;5009772;28;20128;-87
2022/06/18 00:49:30;;;;;;;5.85;2.95;;;;;;;21.56;61.79;69167.81;5010564;28;20437;-86
2022/06/18 00:52:08;;;;;;;6.15;2.92;;;;;;;21.65;61.20;69176.97;5009281;28;20527;-87
2022/06/18 00:54:49;;;;;;;6.05;2.72;;;;;;;;;;4995020;28;20567;-87
2022/06/18 00:57:31;;;;;;;4.47;2.97;;;;;;;21.54;61.87;69165.50;5025717;28;20132;-87
2022/06/18 01:00:01;;;;;;;4.35;2.65;;;;;;;;;;5027808;28;20044;-87
2022/06/18 01:02:34;;;;;;;4.68;2.83;;;;;;;21.62;61.37;69182.81;5008865;28;20071;-86
2022/06/18 01:04:59;;;;;;;5.55;2.83;;;;;;;21.54;61.88;69170.38;5009605;28;20049;-87
2022/06/18 01:07:37;;;;;;;5.22;3.40;;;;;;;21.47;62.70;69162.94;5027513;28;20628;-87
2022/06/18 01:10:04;;;;;;;6.72;3.30;;;;;;;;;;5012671;28;20059;-87
2022/06/18 01:12:30;;;;;;;6.05;3.15;;;;;;;21.51;62.72;69166.94;5009861;28;20037;-87
2022/06/18 01:15:04;;;;;;;4.88;3.28;;;;;;;21.53;62.33;69164.38;5010063;28;20052;-87
2022/06/18 01:17:31;;;;;;;3.72;2.70;;;;;;;21.59;62.32;69176.09;4981009;28;20048;-87
2022/06/18 01:19:59;;;;;;;5.45;3.03;;;;;;;;;;5023371;28;20042;-87
2022/06/18 01:22:30;;;;;;;4.78;3.25;;;;;;;;;;5004752;28;20061;-87
2022/06/18 01:24:56;;;;;;;8.20;3.30;;;;;;;21.56;62.70;69167.25;5005395;28;20561;-87
2022/06/18 01:27:22;;;;;;;7.60;3.28;;;;;;;21.57;62.49;69174.38;5015687;28;20076;-87
2022/06/18 01:29:47;;;;;;;5.35;2.97;;;;;;;21.57;62.77;69168.38;4995783;28;20112;-86
2022/06/18 01:32:16;;;;;;;5.43;3.17;;;;;;;21.58;62.94;69167.41;5005901;28;20515;-87
2022/06/18 01:34:42;;;;;;;6.97;4.13;;;;;;;21.54;63.27;69170.38;5009194;28;20508;-87
2022/06/18 01:37:08;;;;;;;4.57;2.53;;;;;;;21.55;63.21;69166.69;5026510;28;20072;-87
2022/06/18 01:39:37;;;;;;;5.95;3.08;;;;;;;21.57;62.79;69168.94;5009767;28;20072;-86
2022/06/18 01:42:11;;;;;;;7.18;3.30;;;;;;;21.55;63.04;69171.50;4992553;28;20045;-87
2022/06/18 01:45:15;;;;;;;5.80;3.42;;;;;;;21.48;63.51;69158.66;5025334;28;20049;-87
2022/06/18 01:47:49;;;;;;;7.18;3.42;;;;;;;21.47;63.71;69157.50;4913427;29;20119;-87
2022/06/18 01:50:22;;;;;;;6.28;3.30;;;;;;;;;;4992031;28;20033;-87
2022/06/18 01:52:50;;;;;;;5.95;3.22;;;;;;;;;;5015426;28;20045;-87
2022/06/18 01:55:22;;;;;;;7.15;3.10;;;;;;;21.46;64.28;69161.22;5009381;28;20628;-87
2022/06/18 01:57:55;;;;;;;6.10;2.80;;;;;;;21.44;64.07;69154.09;5035122;28;20115;-86
2022/06/18 02:00:22;;;;;;;3.75;2.72;;;;;;;;;;5016302;28;20029;-87
2022/06/18 02:02:48;;;;;;;6.20;3.33;;;;;;;21.39;64.63;69153.78;5014713;28;20051;-86
2022/06/18 02:05:14;;;;;;;8.45;2.85;;;;;;;;;;5012482;28;20101;-86
2022/06/18 02:07:41;;;;;;;6.55;3.15;;;;;;;;;;5009236;28;20076;-87
2022/06/18 02:10:15;;;;;;;6.85;3.35;;;;;;;21.33;64.93;69150.16;5003313;28;20120;-86
2022/06/18 02:12:41;;;;;;;5.38;2.88;;;;;;;;;;5007771;28;20095;-86
2022/06/18 02:15:14;;;;;;;9.23;3.15;;;;;;;21.26;65.55;69133.44;5025914;28;20440;-86
2022/06/18 02:17:40;;;;;;;9.07;4.05;;;;;;;21.28;65.44;69135.75;5020398;28;20053;-86
2022/06/18 02:20:15;;;;;;;6.43;3.40;;;;;;;21.23;66.05;69136.00;5003407;28;20046;-85
2022/06/18 02:22:46;;;;;;;5.55;3.20;;;;;;;21.18;66.39;69130.31;5001630;28;20045;-86
2022/06/18 02:25:12;;;;;;;7.45;4.18;;;;;;;;;;4988429;28;20042;-85
2022/06/18 02:27:39;;;;;;;6.15;3.63;;;;;;;21.12;66.79;69123.44;4990409;28;20049;-85
2022/06/18 02:30:05;;;;;;;6.95;3.47;;;;;;;;;;4983986;28;20035;-85
2022/06/18 02:32:46;;;;;;;4.03;3.17;;;;;;;;;;4989786;28;20104;-85
2022/06/18 02:35:12;;;;;;;7.13;3.88;;;;;;;;;;5000569;28;20045;-86
2022/06/18 02:37:38;;;;;;;6.25;3.78;;;;;;;;;;5001399;28;20043;-86
2022/06/18 02:40:13;;;;;;;4.73;3.63;;;;;;;20.96;67.52;69105.69;5002887;28;20041;-86
2022/06/18 02:42:38;;;;;;;8.15;4.05;;;;;;;;;;5005195;28;20284;-86
2022/06/18 02:45:05;;;;;;;5.55;3.50;;;;;;;20.92;67.91;69101.69;4999236;28;20050;-86
2022/06/18 02:47:30;;;;;;;6.63;3.97;;;;;;;20.95;67.62;69099.16;5005122;28;20044;-86
2022/06/18 02:50:01;;;;;;;6.07;3.90;;;;;;;;;;5005813;28;20041;-86
2022/06/18 02:52:30;;;;;;;7.07;3.95;;;;;;;;;;5005546;28;20522;-86
2022/06/18 02:55:19;;;;;;;6.80;3.63;;;;;;;20.89;68.32;69098.28;5009393;28;20045;-84
2022/06/18 02:57:48;;;;;;;7.25;3.85;;;;;;;20.90;68.62;69099.41;5001241;28;20050;-85
2022/06/18 03:00:13;;;;;;;6.68;3.60;;;;;;;;;;5009052;28;20048;-85
2022/06/18 03:02:39;;;;;;;6.05;3.88;;;;;;;;;;5027911;28;20041;-86
2022/06/18 03:05:04;;;;;;;6.82;3.42;;;;;;;;;;5020182;28;20042;-85
2022/06/18 03:07:30;;;;;;;6.22;3.90;;;;;;;20.77;68.79;69079.13;5009163;28;20712;-86
2022/06/18 03:12:39;;;;;;;6.13;3.17;;;;;;;;;;5025755;28;20061;-84
2022/06/18 03:15:05;;;;;;;6.22;3.42;;;;;;;20.71;69.27;69072.84;5016051;28;20561;-86
2022/06/18 03:17:30;;;;;;;3.63;3.10;;;;;;;20.72;69.86;69078.81;5026834;28;20119;-84
2022/06/18 03:20:01;;;;;;;4.60;3.20;;;;;;;20.70;69.65;69071.69;5029699;28;20461;-85
2022/06/18 03:22:26;;;;;;;8.93;3.60;;;;;;;20.64;69.70;69070.25;5022735;28;20516;-85
2022/06/18 03:24:51;;;;;;;5.22;3.50;;;;;;;20.59;69.71;69067.22;5030693;28;20047;-86
2022/06/18 03:27:17;;;;;;;5.60;3.78;;;;;;;;;;5027747;28;20033;-86
2022/06/18 03:29:43;;;;;;;6.00;3.55;;;;;;;20.59;70.18;69063.94;5028138;28;20047;-86
2022/06/18 03:32:09;;;;;;;6.25;3.75;;;;;;;;;;5026958;28;20127;-85
2022/06/18 03:34:34;;;;;;;5.80;4.40;;;;;;;20.53;70.86;69057.66;5012096;28;20045;-86
2022/06/18 03:37:00;;;;;;;9.80;3.90;;;;;;;20.53;71.00;69057.09;5029702;28;20087;-86
2022/06/18 03:39:25;;;;;;;5.38;3.47;;;;;;;;;;5011054;28;20053;-86
2022/06/18 03:41:50;;;;;;;8.40;4.30;;;;;;;;;;5027361;28;20121;-86
2022/06/18 03:44:16;;;;;;;4.90;3.73;;;;;;;20.51;71.00;69050.53;5010139;28;20111;-86
2022/06/18 03:46:43;;;;;;;7.90;3.55;;;;;;;;;;5027871;28;20276;-86
2022/06/18 03:49:13;;;;;;;7.00;4.00;;;;;;;20.58;70.69;69063.38;5011010;28;20037;-86
2022/06/18 03:51:39;;;;;;;7.00;4.13;;;;;;;20.56;70.66;69055.69;5007612;28;20045;-86
2022/06/18 03:54:04;;;;;;;5.80;3.60;;;;;;;;;;5006794;28;20084;-85
2022/06/18 03:56:31;;;;;;;6.35;3.92;;;;;;;20.50;71.40;69054.78;5016443;28;20041;-86
2022/06/18 03:58:57;;;;;;;6.50;4.18;;;;;;;20.53;71.63;69057.09;4991417;28;20065;-86
2022/06/18 04:01:25;;;;;;;8.18;4.20;;;;;;;;;;4996893;28;20069;-87
2022/06/18 04:03:50;;;;;;;6.03;3.80;;;;;;;;;;5013255;28;20045;-87
2022/06/18 04:06:15;;;;;;;6.90;3.88;;;;;;;20.54;71.54;69058.22;5024750;28;20417;-85
2022/06/18 04:08:42;;;;;;;6.80;4.32;;;;;;;20.48;71.74;69046.50;5016991;28;20065;-85
2022/06/18 04:11:11;;;;;;;6.20;3.95;;;;;;;20.50;71.55;69056.91;5008129;28;20041;-85
2022/06/18 04:13:37;;;;;;;7.53;4.35;;;;;;;20.54;71.47;69052.81;5019226;28;20103;-85
2022/06/18 04:16:03;;;;;;;6.40;4.80;;;;;;;20.56;71.83;69055.09;5011344;28;20045;-85
2022/06/18 04:18:29;;;;;;;7.63;4.25;;;;;;;20.58;71.79;69063.38;5026393;28;20052;-85
2022/06/18 04:20:54;;;;;;;8.73;4.57;;;;;;;;;;5023390;28;20107;-85
2022/06/18 04:23:19;;;;;;;7.40;4.50;;;;;;;;;;5014042;28;20069;-85
2022/06/18 04:25:45;;;;;;;6.00;4.53;;;;;;;;;;5008430;28;20491;-85
2022/06/18 04:28:12;;;;;;;8.13;4.63;;;;;;;20.64;72.06;69070.25;5008764;28;20068;-85
2022/06/18 04:30:38;;;;;;;7.97;5.40;;;;;;;20.64;71.75;69070.25;5018918;28;20042;-85
2022/06/18 04:33:03;;;;;;;7.28;4.53;;;;;;;20.68;71.19;69074.22;5025845;28;20079;-84
2022/06/18 04:35:29;;;;;;;10.38;5.35;;;;;;;20.71;72.14;69077.66;5009641;28;20053;-85
2022/06/18 04:37:55;;;;;;;8.88;5.35;;;;;;;20.76;71.63;69077.41;5027455;28;20033;-85
2022/06/18 04:40:28;;;;;;;11.60;4.88;;;;;;;20.75;72.04;69081.69;5025851;28;20536;-85
2022/06/18 04:42:53;;;;;;;9.73;5.22;;;;;;;20.77;71.70;69079.13;5015525;28;20042;-85
2022/06/18 04:45:19;;;;;;;9.45;5.00;;;;;;;20.79;71.76;69086.81;5008701;28;20107;-85
2022/06/18 04:47:44;;;;;;;10.15;5.00;;;;;;;20.81;72.14;69083.69;5018191;28;20128;-85
2022/06/18 04:50:22;;;;;;;8.63;5.55;;;;;;;20.87;71.96;69095.97;5028676;28;20044;-86
2022/06/18 04:52:47;;;;;;;8.02;5.28;;;;;;;20.90;72.27;69094.00;5006774;28;20112;-84
2022/06/18 04:55:13;;;;;;;11.98;5.72;;;;;;;20.93;71.91;69104.97;5008609;28;20061;-85
2022/06/18 04:57:38;;;;;;;6.93;5.28;;;;;;;;;;4998649;28;20509;-86
2022/06/18 05:00:07;;;;;;;9.13;5.63;;;;;;;20.96;71.16;69098.16;5008825;28;20516;-85
2022/06/18 05:02:33;;;;;;;7.82;4.95;;;;;;;21.02;71.04;69106.56;5000429;28;20273;-86
2022/06/18 05:04:58;;;;;;;8.50;5.40;;;;;;;21.06;70.95;69116.56;5027558;28;20041;-86
2022/06/18 05:07:24;;;;;;;9.85;5.75;;;;;;;21.10;71.50;69121.16;5020235;28;20049;-85
2022/06/18 05:09:49;;;;;;;8.45;5.63;;;;;;;;;;5017375;28;20046;-85
2022/06/18 05:12:15;;;;;;;9.35;5.85;;;;;;;21.17;70.76;69124.28;5007831;28;20148;-85
2022/06/18 05:14:41;;;;;;;10.02;6.40;;;;;;;21.23;70.70;69130.59;5009793;28;20444;-86
2022/06/18 05:17:12;;;;;;;9.95;6.13;;;;;;;21.28;70.67;69136.31;5028285;28;20044;-86
2022/06/18 05:19:37;;;;;;;11.20;6.32;;;;;;;;;;5025460;28;20095;-87
2022/06/18 05:22:03;;;;;;;11.73;6.95;;;;;;;21.35;70.81;69149.75;5017254;28;20042;-86
2022/06/18 05:24:28;;;;;;;10.90;6.97;;;;;;;;;;4990605;28;20042;-85
2022/06/18 05:26:56;;;;;;;10.48;6.40;;;;;;;21.40;70.21;69146.78;5024352;28;20128;-86
2022/06/18 05:29:22;;;;;;;8.70;6.05;;;;;;;21.45;69.75;69160.06;5009902;28;20084;-86
2022/06/18 05:31:47;;;;;;;8.70;6.13;;;;;;;21.49;70.80;69159.22;5002465;28;20466;-86
2022/06/18 05:34:13;;;;;;;9.23;6.22;;;;;;;21.52;70.24;69163.25;5002446;28;20092;-86
2022/06/18 05:36:38;;;;;;;8.23;6.20;;;;;;;;;;5007741;28;20681;-87
2022/06/18 05:39:05;;;;;;;9.32;6.80;;;;;;;21.57;70.47;69168.38;5001770;28;20041;-87
2022/06/18 05:41:31;;;;;;;16.00;6.95;;;;;;;21.59;69.58;69176.09;5005351;28;20045;-87
2022/06/18 05:43:57;;;;;;;9.23;6.93;;;;;;;21.62;70.44;69180.09;5015205;28;20048;-87
2022/06/18 05:46:23;;;;;;;12.25;6.38;;;;;;;21.66;70.27;69178.69;5015934;28;20156;-88
2022/06/18 05:48:48;;;;;;;9.98;6.60;;;;;;;;;;5008203;28;20092;-88
2022/06/18 05:51:14;;;;;;;9.18;7.03;;;;;;;21.73;70.27;69186.69;5019122;28;20492;-87
2022/06/18 05:53:39;;;;;;;11.45;7.65;;;;;;;;;;5001187;28;20066;-87
2022/06/18 05:56:04;;;;;;;9.88;7.10;;;;;;;;;;5026311;28;20076;-87
2022/06/18 05:58:30;;;;;;;10.63;7.47;;;;;;;21.90;69.93;69205.03;4995255;28;20046;-88
2022/06/18 06:00:56;;;;;;;11.40;7.88;;;;;;;21.90;69.15;69211.00;5001591;28;20037;-88
2022/06/18 06:03:21;;;;;;;11.77;8.23;;;;;;;;;;4999846;28;20061;-88
2022/06/18 06:05:47;;;;;;;11.93;7.72;;;;;;;;;;5003446;28;20537;-88
2022/06/18 06:08:12;;;;;;;12.77;8.60;;;;;;;;;;5018707;28;20143;-88
2022/06/18 06:13:22;;;;;;;15.35;8.50;;;;;;;22.02;69.26;69224.16;5024783;28;20099;-88
2022/06/18 06:15:48;;;;;;;12.55;7.47;;;;;;;;;;5000133;28;20547;-87
2022/06/18 06:18:14;;;;;;;14.07;8.05;;;;;;;;;;5004544;28;20117;-87
2022/06/18 06:20:40;;;;;;;12.30;8.40;;;;;;;;;;5021902;28;20045;-87
2022/06/18 06:23:07;;;;;;;10.30;8.27;;;;;;;22.21;69.02;69245.38;5015753;28;20378;-86
2022/06/18 06:25:33;;;;;;;10.18;8.07;;;;;;;22.26;69.02;69251.09;5023109;28;20710;-86
2022/06/18 06:27:58;;;;;;;10.50;7.53;;;;;;;;;;5004321;28;20497;-86
2022/06/18 06:30:23;;;;;;;12.90;8.30;;;;;;;22.37;68.66;69257.69;5002092;28;20488;-86
2022/06/18 06:32:49;;;;;;;12.02;8.90;;;;;;;22.46;68.43;69268.00;5007900;28;20288;-87
2022/06/18 06:35:14;;;;;;;12.65;8.35;;;;;;;22.55;68.79;69283.72;5009343;28;20128;-88
2022/06/18 06:37:40;;;;;;;14.80;8.85;;;;;;;;;;5007872;28;20056;-88
2022/06/18 06:40:06;;;;;;;12.70;9.20;;;;;;;;;;5005371;28;20037;-86
2022/06/18 06:42:46;;;;;;;12.20;8.75;;;;;;;22.54;68.61;69282.59;5004045;28;20037;-86
2022/06/18 06:45:13;;;;;;;13.52;8.40;;;;;;;;;;5019202;28;20041;-86
2022/06/18 06:47:38;;;;;;;16.83;9.70;;;;;;;;;;5024268;28;20041;-86
2022/06/18 06:50:07;;;;;;;12.68;8.38;;;;;;;22.63;68.64;69286.91;5007538;28;20033;-87
2022/06/18 06:52:32;;;;;;;12.00;8.90;;;;;;;;;;5002931;28;20052;-88
2022/06/18 06:57:45;;;;;;;11.80;7.93;;;;;;;22.79;68.41;69305.22;5007563;28;20080;-88
2022/06/18 07:00:11;;;;;;;11.38;8.30;;;;;;;;;;5028093;28;20049;-87
2022/06/18 07:02:36;;;;;;;13.30;9.15;;;;;;;;;;5009272;28;20045;-90
2022/06/18 07:05:02;;;;;;;12.57;8.77;;;;;;;;;;5010232;28;20045;-89
2022/06/18 07:07:30;;;;;;;13.25;8.68;;;;;;;23.02;68.10;69341.88;5008235;28;20152;-87
2022/06/18 07:09:55;;;;;;;11.40;9.10;;;;;;;23.11;67.41;69338.63;5023466;28;20040;-88
2022/06/18 07:12:21;;;;;;;15.10;10.10;;;;;;;23.12;67.41;69347.91;5024330;28;20641;-88
2022/06/18 07:14:46;;;;;;;15.60;9.50;;;;;;;23.22;67.40;69352.78;5009162;28;20132;-88
2022/06/18 07:17:15;;;;;;;13.90;9.43;;;;;;;;;;5007910;28;20500;-88
2022/06/18 07:19:41;;;;;;;15.82;9.82;;;;;;;;;;5010268;28;20567;-87
2022/06/18 07:22:10;;;;;;;15.43;9.63;;;;;;;23.31;67.29;69363.69;5008729;28;20041;-88
2022/06/18 07:24:36;;;;;;;10.70;9.20;;;;;;;23.37;67.32;69369.97;5027161;28;20306;-88
2022/06/18 07:27:02;;;;;;;14.27;9.43;;;;;;;23.44;67.46;69383.41;5026216;28;20038;-90
2022/06/18 07:29:27;;;;;;;15.68;9.98;;;;;;;23.42;66.66;69375.72;5009395;28;20037;-89
2022/06/18 07:31:52;;;;;;;12.48;8.60;;;;;;;23.47;67.02;69380.84;5026995;28;20037;-89
2022/06/18 07:34:18;;;;;;;15.25;9.10;;;;;;;23.57;66.88;69397.75;5000489;28;20038;-86
2022/06/18 07:36:43;;;;;;;11.57;8.77;;;;;;;23.56;66.68;69391.75;5004860;28;20103;-86
2022/06/18 07:39:09;;;;;;;13.57;9.75;;;;;;;23.68;67.35;69401.63;5013398;28;20042;-87
2022/06/18 07:41:39;;;;;;;12.38;8.07;;;;;;;23.79;67.18;69414.81;5015968;28;20118;-84
2022/06/18 07:44:05;;;;;;;13.20;8.73;;;;;;;23.97;67.18;69437.63;5010872;28;20033;-87
2022/06/18 07:46:31;;;;;;;18.02;9.10;;;;;;;23.99;66.10;69445.34;5016453;28;20636;-88
2022/06/18 07:48:56;;;;;;;15.38;9.23;;;;;;;24.06;66.15;69445.22;5003397;28;20124;-88
2022/06/18 07:51:22;;;;;;;15.25;8.77;;;;;;;;;;5018406;28;20065;-89
2022/06/18 07:53:48;;;;;;;15.75;9.70;;;;;;;24.22;65.93;69473.28;5024231;28;20041;-87
2022/06/18 07:56:15;;;;;;;16.88;10.40;;;;;;;24.17;64.82;69457.25;5010899;28;20515;-88
2022/06/18 07:58:41;;;;;;;11.15;9.48;;;;;;;24.17;65.67;69456.66;5009361;28;20049;-87
2022/06/18 08:01:07;;;;;;;13.63;9.15;;;;;;;;;;5007106;28;20536;-88
2022/06/18 08:03:32;;;;;;;12.73;8.25;;;;;;;24.29;65.34;69479.16;5021957;28;20050;-88
2022/06/18 08:05:58;;;;;;;19.10;9.73;;;;;;;24.35;65.36;69484.91;5021294;28;20581;-88
2022/06/18 08:08:24;;;;;;;12.07;9.13;;;;;;;24.38;64.90;69480.75;5012752;28;20121;-88
2022/06/18 08:10:52;;;;;;;14.15;8.98;;;;;;;24.35;64.54;69480.03;5008500;28;20049;-88
2022/06/18 08:13:18;;;;;;;16.98;9.68;;;;;;;24.45;64.74;69496.38;4999249;28;20105;-88
2022/06/18 08:15:45;;;;;;;19.23;10.30;;;;;;;24.44;64.44;69487.66;5022774;28;20115;-88
2022/06/18 08:18:11;;;;;;;13.15;8.75;;;;;;;24.62;65.15;69509.88;5010404;28;20467;-88
2022/06/18 08:20:37;;;;;;;13.27;9.07;;;;;;;24.72;63.72;69518.63;5028535;28;20408;-88
2022/06/18 08:23:06;;;;;;;13.82;9.13;;;;;;;24.85;64.01;69535.69;5005492;28;20037;-88
2022/06/18 08:25:32;;;;;;;;;;;;;;;24.95;63.22;69547.72;5022025;28;20095;-88
2022/06/18 08:28:00;;;;;;;10.48;8.13;;;;;;;25.04;63.16;69556.91;5017078;28;19913;-88
2022/06/18 08:30:26;;;;;;;12.60;8.70;;;;;;;;;;5004497;28;20038;-88
2022/06/18 08:32:51;;;;;;;14.18;8.88;;;;;;;25.14;62.40;69573.84;5011583;28;20496;-88
2022/06/18 08:35:17;;;;;;;13.50;9.43;;;;;;;25.08;62.65;69558.75;5028178;28;20453;-88
2022/06/18 08:37:43;;;;;;;12.65;8.43;;;;;;;25.19;62.59;69579.59;5010801;28;20037;-88
2022/06/18 08:40:37;;;;;;;11.80;7.65;;;;;;;25.16;62.18;69570.69;5011847;28;20116;-88
2022/06/18 08:43:31;;;;;;;12.80;8.15;;;;;;;25.20;61.27;69575.88;4993684;28;20060;-89
2022/06/18 08:46:32;;;;;;;13.65;8.35;;;;;;;25.29;61.44;69585.63;5011637;28;20188;-88
2022/06/18 08:49:16;;;;;;;11.70;8.38;;;;;;;;;;4978013;28;20038;-88
2022/06/18 08:52:00;;;;;;;12.63;9.20;;;;;;;25.42;61.19;69599.94;4984611;28;20042;-88
2022/06/18 08:54:31;;;;;;;13.88;8.32;;;;;;;25.69;61.25;69627.63;5010447;28;20108;-89
2022/06/18 08:57:13;;;;;;;13.68;8.55;;;;;;;25.80;60.61;69637.53;5010892;28;20053;-89
2022/06/18 09:00:08;;;;;;;11.75;7.70;;;;;;;25.96;59.83;69660.22;5009559;28;20054;-89
2022/06/18 09:02:54;;;;;;;11.88;7.93;;;;;;;25.91;59.57;69649.03;5008023;28;20044;-89
2022/06/18 09:05:32;;;;;;;16.92;8.13;;;;;;;;;;4990987;28;20057;-90
2022/06/18 09:08:27;;;;;;;16.25;9.25;;;;;;;25.97;60.60;69661.94;5011026;28;20050;-90
2022/06/18 09:11:02;;;;;;;13.25;7.55;;;;;;;26.13;60.00;69679.75;4976972;28;20049;-88
2022/06/18 09:13:33;;;;;;;9.57;7.18;;;;;;;;;;5008088;28;20038;-89
2022/06/18 09:16:02;;;;;;;12.45;7.82;;;;;;;26.37;57.25;69706.16;5009122;28;20041;-91
2022/06/18 09:18:43;;;;;;;14.50;8.90;;;;;;;26.39;58.14;69706.28;4991771;28;20042;-89
2022/06/18 09:21:14;;;;;;;14.18;8.25;;;;;;;;;;5010223;28;20048;-89
2022/06/18 09:23:42;;;;;;;13.82;9.80;;;;;;;;;;5010187;28;20045;-89
2022/06/18 09:26:12;;;;;;;11.07;8.80;;;;;;;;;;4984933;28;20049;-88
2022/06/18 09:28:43;;;;;;;18.35;9.15;;;;;;;26.62;58.68;69734.88;4983817;28;20378;-89
2022/06/18 09:31:20;;;;;;;13.98;8.77;;;;;;;26.76;58.15;69748.22;4993491;28;20042;-88
2022/06/18 09:33:58;;;;;;;12.32;7.78;;;;;;;26.75;55.96;69749.78;5006768;28;20446;-89
2022/06/18 09:36:26;;;;;;;14.35;9.30;;;;;;;;;;5010039;28;20049;-90
2022/06/18 09:39:02;;;;;;;17.63;9.70;;;;;;;26.92;58.17;69768.19;5000323;28;20045;-89
2022/06/18 09:41:34;;;;;;;16.58;9.70;;;;;;;26.94;58.59;69771.06;5003600;28;20386;-90
2022/06/18 09:44:10;;;;;;;15.55;11.10;;;;;;;26.92;58.11;69765.44;5015587;28;20050;-90
2022/06/18 09:46:44;;;;;;;18.45;10.48;;;;;;;26.98;58.42;69775.63;5016460;28;20699;-90
2022/06/18 09:49:10;;;;;;;12.50;8.65;;;;;;;27.17;59.08;69796.91;5034626;28;20133;-90
2022/06/18 09:51:50;;;;;;;12.50;8.80;;;;;;;27.26;58.56;69803.94;5007675;28;20049;-90
2022/06/18 09:54:17;;;;;;;16.83;8.70;;;;;;;27.17;57.17;69796.34;5020312;28;20038;-90
2022/06/18 09:56:45;;;;;;;11.93;5.97;;;;;;;;;;4999447;28;20401;-89
2022/06/18 09:59:25;;;;;;;10.25;6.45;;;;;;;27.45;55.07;69833.41;4989100;28;20109;-89
2022/06/18 10:01:53;;;;;;;12.40;6.85;;;;;;;27.59;54.58;69844.03;5023481;28;20526;-90
2022/06/18 10:07:18;;;;;;;11.70;5.68;;;;;;;27.80;51.63;69864.31;5030840;28;20064;-90
2022/06/18 10:09:45;;;;;;;12.80;6.68;;;;;;;;;;5028136;28;20037;-90
2022/06/18 10:12:14;;;;;;;10.60;5.38;;;;;;;;;;5005859;28;20455;-89
2022/06/18 10:14:40;;;;;;;10.07;5.65;;;;;;;;;;5024281;28;20140;-90
2022/06/18 10:17:26;;;;;;;14.25;6.90;;;;;;;27.83;52.38;69868.31;5017535;28;20503;-90
2022/06/18 10:20:21;;;;;;;15.73;6.78;;;;;;;27.90;51.19;69879.09;5024677;28;20132;-90
2022/06/18 10:22:52;;;;;;;12.18;5.72;;;;;;;28.12;52.44;69901.09;4970123;28;20121;-90
2022/06/18 10:25:24;;;;;;;9.30;5.30;;;;;;;28.22;49.97;69908.69;5004340;28;20045;-90
2022/06/18 10:28:20;;;;;;;11.73;5.38;;;;;;;28.18;49.26;69907.41;5024933;28;20042;-90
2022/06/18 10:30:53;;;;;;;12.65;5.15;;;;;;;28.22;48.64;69914.16;4988840;28;20444;-90
2022/06/18 10:33:46;;;;;;;12.75;4.95;;;;;;;28.35;48.54;69926.38;4999571;28;20495;-89
2022/06/18 10:36:30;;;;;;;12.18;5.10;;;;;;;28.42;48.90;69931.13;4990263;28;20046;-90
2022/06/18 10:39:18;;;;;;;11.07;5.95;;;;;;;28.46;47.56;69939.03;5021181;28;20045;-90
2022/06/18 10:42:05;;;;;;;11.93;5.15;;;;;;;28.54;47.90;69950.41;4999205;28;20137;-90
2022/06/18 10:44:33;;;;;;;9.02;5.07;;;;;;;28.50;49.73;69940.91;4991739;28;20405;-89
2022/06/18 10:47:05;;;;;;;10.20;4.75;;;;;;;28.66;48.36;69963.63;5018159;28;20121;-87
2022/06/18 10:49:31;;;;;;;15.02;5.07;;;;;;;28.65;47.62;69957.00;4994774;28;20042;-90
2022/06/18 10:51:57;;;;;;;12.20;4.95;;;;;;;;;;5030435;28;20083;-90
2022/06/18 10:54:34;;;;;;;8.10;4.45;;;;;;;28.74;46.39;69972.81;5015287;28;20025;-90
2022/06/18 10:57:01;;;;;;;12.95;4.30;;;;;;;28.93;46.24;69988.63;4998952;28;20444;-90
2022/06/18 10:59:28;;;;;;;10.02;5.60;;;;;;;28.98;46.77;70000.44;5022865;28;20038;-91
2022/06/18 11:01:53;;;;;;;9.85;5.00;;;;;;;29.05;46.43;70001.88;5006136;28;20501;-87
2022/06/18 11:04:30;;;;;;;10.52;5.38;;;;;;;29.02;46.81;70009.94;5026022;28;20048;-89
2022/06/18 11:06:59;;;;;;;16.80;5.75;;;;;;;28.85;46.11;69985.47;5027108;28;20054;-90
2022/06/18 11:09:28;;;;;;;11.60;4.00;;;;;;;28.83;45.92;69983.19;5009563;28;20033;-90
2022/06/18 11:12:02;;;;;;;12.10;4.90;;;;;;;29.01;45.60;70001.13;5023117;28;20076;-88
2022/06/18 11:14:39;;;;;;;11.65;4.53;;;;;;;29.06;45.47;70000.28;4993677;28;20030;-89
2022/06/18 11:17:21;;;;;;;11.15;4.10;;;;;;;29.14;45.15;70015.53;5017955;28;20041;-88
2022/06/18 11:19:50;;;;;;;11.13;4.75;;;;;;;29.23;45.08;70022.56;5025728;28;20048;-88
2022/06/18 11:22:27;;;;;;;10.95;4.05;;;;;;;29.31;45.41;70028.47;5011683;28;20385;-88
2022/06/18 11:25:01;;;;;;;11.23;4.80;;;;;;;29.56;43.55;70062.13;5003169;28;20054;-88
2022/06/18 11:27:34;;;;;;;8.43;4.40;;;;;;;29.52;43.41;70055.38;4998794;28;20049;-88
2022/06/18 11:30:09;;;;;;;16.30;5.15;;;;;;;29.52;44.09;70060.25;5022742;28;20049;-87
2022/06/18 11:32:37;;;;;;;9.40;4.60;;;;;;;29.45;44.34;70047.31;5011764;28;20046;-88
2022/06/18 11:35:30;;;;;;;9.68;4.40;;;;;;;29.26;44.09;70026.00;5011497;28;20037;-88
2022/06/18 11:37:57;;;;;;;13.90;4.30;;;;;;;29.21;44.82;70025.75;5007060;28;20566;-88
2022/06/18 11:40:22;;;;;;;11.25;5.55;;;;;;;;;;5001087;28;20100;-88
2022/06/18 11:43:14;;;;;;;12.25;5.35;;;;;;;29.47;44.88;70055.09;5009776;28;20049;-88
2022/06/18 11:45:53;;;;;;;15.82;5.30;;;;;;;29.66;44.89;70073.66;4996222;28;20046;-88
2022/06/18 11:48:47;;;;;;;18.60;6.05;;;;;;;29.58;44.81;70067.19;4998311;28;20038;-88
2022/06/18 11:51:41;;;;;;;13.95;5.10;;;;;;;29.44;44.52;70046.72;5023264;28;20551;-88
2022/06/18 11:54:32;;;;;;;11.75;5.22;;;;;;;29.35;46.01;70041.28;5012831;28;20041;-88
2022/06/18 11:57:27;;;;;;;10.70;4.95;;;;;;;29.69;45.26;70074.34;4967905;28;20077;-88
2022/06/18 12:00:04;;;;;;;11.80;4.85;;;;;;;29.88;46.00;70101.72;5021875;28;20144;-87
2022/06/18 12:02:54;;;;;;;12.35;5.65;;;;;;;30.00;45.23;70111.63;5001027;28;20034;-87
2022/06/18 12:05:44;;;;;;;11.50;5.25;;;;;;;29.96;45.20;70109.78;4996386;28;20064;-88
2022/06/18 12:08:16;;;;;;;9.30;5.53;;;;;;;29.88;44.52;70101.72;5021556;28;20038;-88
2022/06/18 12:10:48;;;;;;;11.35;5.45;;;;;;;30.07;45.07;70119.69;5018827;28;20034;-88
2022/06/18 12:13:40;;;;;;;11.52;5.55;;;;;;;30.22;46.76;70134.22;5027523;28;20049;-88
2022/06/18 12:16:24;;;;;;;10.60;5.72;;;;;;;29.90;44.05;70097.97;5030384;28;20042;-88
2022/06/18 12:19:03;;;;;;;11.23;5.63;;;;;;;30.03;43.60;70115.09;4962368;28;20498;-88
2022/06/18 12:21:47;;;;;;;10.73;4.80;;;;;;;30.34;46.72;70148.03;4946214;28;20043;-88
2022/06/18 12:24:48;;;;;;;13.65;5.18;;;;;;;30.46;43.82;70161.28;4945857;28;20043;-88
2022/06/18 12:27:24;;;;;;;14.23;6.03;;;;;;;30.15;44.21;70128.88;4930137;28;20137;-88
2022/06/18 12:33:48;;;;;;;10.82;5.30;;;;;;;30.62;43.56;70179.13;4911663;28;20043;-88
2022/06/18 12:36:22;;;;;;;10.60;5.25;;;;;;;30.46;44.08;70163.44;4943575;28;20077;-88
2022/06/18 12:39:01;;;;;;;10.43;5.05;;;;;;;30.61;42.88;70177.97;4947385;28;20067;-88
2022/06/18 12:41:52;;;;;;;9.77;4.97;;;;;;;30.78;43.77;70196.97;4944657;28;20131;-88
2022/06/18 12:44:17;;;;;;;10.93;5.88;;;;;;;30.97;43.45;70223.78;4947590;28;20039;-88
2022/06/18 12:47:13;;;;;;;12.00;5.13;;;;;;;30.66;44.04;70183.16;4927620;29;20051;-88
2022/06/18 12:49:55;;;;;;;10.40;5.35;;;;;;;30.88;44.39;70213.44;4922385;29;20047;-88